Atascadero, California
Current Conditions -  °F | °C
As of 7:12 PM on Saturday 20 Dec 2014 (Local Time) from KPRB Reporting Station
Broken Clouds Broken Clouds  
Wind Chill: 57°   Ceiling: 3100
Heat Index: 57°   Visibility: 10mi
Dew Point: 52°   Wind: 8mph
Humidity: 83%   Direction: 320°NW
Pressure: 30.23"   Gusts: NA
Location:  35.49°N, 120.66°W
Report Text: KPRB 210312Z AUTO 32007KT 10SM SCT023 BKN031 BKN070 14/11 A3023 RMK AO2 T01390111 TSNO
Loading
Personal Weather Stations






























Interactive Weather Map New forecast layout! Learn more

10-Day Weather Forecast

Advertisements
Track Severe Weather on mobile